Time;durP1;ratioP1;P1;durP2;ratioP2;P2;SDS_P1;SDS_P2;PMS_P1;PMS_P2;Temp;Humidity;BMP_temperature;BMP_pressure;BME280_temperature;BME280_humidity;BME280_pressure;Samples;Min_cycle;Max_cycle;Signal;HPM_P1;HPM_P2
2022/06/19 00:01:17;;;;;;;10.13;3.45;;;;;;;;;;5000226;28;20030;-75
2022/06/19 00:03:47;;;;;;;10.32;3.72;;;;;;;;;;5008991;28;20022;-76
2022/06/19 00:06:13;;;;;;;14.02;3.58;;;;;;;;;;5014087;28;20027;-76
2022/06/19 00:08:40;;;;;;;12.20;3.17;;;;;;;;;;5000144;28;20066;-75
2022/06/19 00:11:07;;;;;;;10.25;3.40;;;;;;;;;;4999493;28;20034;-76
2022/06/19 00:13:33;;;;;;;12.27;3.50;;;;;;;;;;5000115;28;20049;-75
2022/06/19 00:16:00;;;;;;;11.52;3.45;;;;;;;;;;4999382;28;20050;-75
2022/06/19 00:18:26;;;;;;;8.23;3.15;;;;;;;;;;4983324;28;20054;-74
2022/06/19 00:20:52;;;;;;;12.80;3.55;;;;;;;;;;5011838;28;20026;-75
2022/06/19 00:23:18;;;;;;;15.40;3.55;;;;;;;;;;4999820;28;20027;-76
2022/06/19 00:25:45;;;;;;;12.40;3.53;;;;;;;;;;4999510;28;20138;-75
2022/06/19 00:28:11;;;;;;;10.57;3.40;;;;;;;;;;4999186;28;20031;-74
2022/06/19 00:30:37;;;;;;;16.83;3.55;;;;;;;;;;4999586;28;20022;-75
2022/06/19 00:33:03;;;;;;;14.13;3.28;;;;;;;;;;5003882;28;20030;-75
2022/06/19 00:35:30;;;;;;;10.77;3.55;;;;;;;;;;5006578;28;20042;-75
2022/06/19 00:37:56;;;;;;;9.73;3.03;;;;;;;;;;4999228;28;20058;-74
2022/06/19 00:40:23;;;;;;;13.98;3.72;;;;;;;;;;4999412;28;20065;-76
2022/06/19 00:42:49;;;;;;;11.32;2.85;;;;;;;;;;4999384;28;20027;-75
2022/06/19 00:45:35;;;;;;;12.52;3.22;;;;;;;;;;5013736;23;20027;-75
2022/06/19 00:48:03;;;;;;;16.20;3.25;;;;;;;;;;4979058;28;20058;-77
2022/06/19 00:50:31;;;;;;;15.27;3.50;;;;;;;;;;4986566;28;20508;-77
2022/06/19 00:52:57;;;;;;;14.38;4.10;;;;;;;;;;4993331;28;20124;-77
2022/06/19 00:55:25;;;;;;;14.70;3.75;;;;;;;;;;4992903;28;20046;-78
2022/06/19 00:57:54;;;;;;;12.93;3.30;;;;;;;;;;4993369;28;20042;-77
2022/06/19 01:00:26;;;;;;;10.05;3.20;;;;;;;;;;4991738;28;20046;-77
2022/06/19 01:03:12;;;;;;;13.23;3.05;;;;;;;;;;4991614;28;20050;-77
2022/06/19 01:05:41;;;;;;;10.85;3.80;;;;;;;;;;4975971;28;20488;-78
2022/06/19 01:08:07;;;;;;;16.60;4.05;;;;;;;;;;4990642;28;20168;-77
2022/06/19 01:10:37;;;;;;;14.88;4.15;;;;;;;;;;4992591;28;20062;-77
2022/06/19 01:13:03;;;;;;;13.98;4.00;;;;;;;;;;4975128;28;20047;-77
2022/06/19 01:15:29;;;;;;;17.20;3.58;;;;;;;;;;4984575;28;20389;-77
2022/06/19 01:17:58;;;;;;;16.55;4.07;;;;;;;;;;4992650;28;20043;-77
2022/06/19 01:20:24;;;;;;;12.85;3.42;;;;;;;;;;4991993;28;20077;-78
2022/06/19 01:23:01;;;;;;;16.23;4.07;;;;;;;;;;4979427;28;20043;-79
2022/06/19 01:25:32;;;;;;;13.50;3.30;;;;;;;;;;4984797;28;20038;-78
2022/06/19 01:30:46;;;;;;;18.30;4.35;;;;;;;;;;4978173;28;20092;-77
2022/06/19 01:33:14;;;;;;;15.57;3.40;;;;;;;;;;4973297;28;20047;-78
2022/06/19 01:35:41;;;;;;;10.75;3.30;;;;;;;;;;4973353;28;20097;-77
2022/06/19 01:38:12;;;;;;;14.60;3.63;;;;;;;;;;4972043;28;20051;-77
2022/06/19 01:40:40;;;;;;;15.93;4.10;;;;;;;;;;4987771;28;20051;-78
2022/06/19 01:43:06;;;;;;;14.35;3.88;;;;;;;;;;4973536;28;20047;-78
2022/06/19 01:45:32;;;;;;;12.20;3.33;;;;;;;;;;4984084;28;20070;-78
2022/06/19 01:48:00;;;;;;;15.95;3.40;;;;;;;;;;4973418;28;20051;-78
2022/06/19 01:50:28;;;;;;;18.48;3.80;;;;;;;;;;4973573;28;20046;-77
2022/06/19 01:52:59;;;;;;;15.43;3.55;;;;;;;;;;4956014;28;20054;-77
2022/06/19 01:55:28;;;;;;;17.42;3.72;;;;;;;;;;4973180;28;20491;-77
2022/06/19 01:57:56;;;;;;;19.75;3.72;;;;;;;;;;4973178;28;20105;-78
2022/06/19 02:00:25;;;;;;;10.65;3.80;;;;;;;;;;4975251;28;20380;-78
2022/06/19 02:02:59;;;;;;;14.50;3.40;;;;;;;;;;4977222;28;20082;-77
2022/06/19 02:05:25;;;;;;;17.27;3.28;;;;;;;;;;4976205;28;20557;-78
2022/06/19 02:07:52;;;;;;;14.30;3.33;;;;;;;;;;4957610;28;20102;-77
2022/06/19 02:10:18;;;;;;;15.85;3.50;;;;;;;;;;4968891;28;20047;-77
2022/06/19 02:12:44;;;;;;;16.67;3.90;;;;;;;;;;4976410;28;20389;-77
2022/06/19 02:15:12;;;;;;;13.75;3.50;;;;;;;;;;4976073;28;20129;-77
2022/06/19 02:17:42;;;;;;;15.07;3.45;;;;;;;;;;4975092;28;20078;-78
2022/06/19 02:20:09;;;;;;;10.05;3.15;;;;;;;;;;4977167;28;20070;-77
2022/06/19 02:22:35;;;;;;;12.73;3.58;;;;;;;;;;4961177;28;20047;-78
2022/06/19 02:25:02;;;;;;;15.82;3.78;;;;;;;;;;4957066;29;20050;-78
2022/06/19 02:27:30;;;;;;;13.43;3.60;;;;;;;;;;4957212;29;20354;-78
2022/06/19 02:29:56;;;;;;;13.02;3.10;;;;;;;;;;4973459;28;20554;-78
2022/06/19 02:32:25;;;;;;;13.88;3.60;;;;;;;;;;4976609;28;20546;-76
2022/06/19 02:34:52;;;;;;;13.27;3.47;;;;;;;;;;4975495;28;20062;-75
2022/06/19 02:37:22;;;;;;;14.05;4.00;;;;;;;;;;4974480;28;20114;-76
2022/06/19 02:40:07;;;;;;;16.15;3.67;;;;;;;;;;4975807;28;20090;-77
2022/06/19 02:42:35;;;;;;;16.05;3.40;;;;;;;;;;4976238;28;20047;-77
2022/06/19 02:45:02;;;;;;;14.35;3.60;;;;;;;;;;4976193;28;20050;-76
2022/06/19 02:47:31;;;;;;;17.27;3.53;;;;;;;;;;4974653;28;20055;-76
2022/06/19 02:49:57;;;;;;;16.13;3.65;;;;;;;;;;4976164;28;20043;-77
2022/06/19 02:52:23;;;;;;;15.60;3.67;;;;;;;;;;4975603;28;20127;-77
2022/06/19 02:54:50;;;;;;;9.90;3.20;;;;;;;;;;4975896;28;20043;-77
2022/06/19 02:57:16;;;;;;;12.57;3.45;;;;;;;;;;4976086;28;20039;-77
2022/06/19 02:59:43;;;;;;;13.25;3.25;;;;;;;;;;4974615;28;20055;-77
2022/06/19 03:02:09;;;;;;;10.52;3.50;;;;;;;;;;4975978;28;20143;-76
2022/06/19 03:04:40;;;;;;;21.10;4.55;;;;;;;;;;4975732;28;20054;-78
2022/06/19 03:07:06;;;;;;;11.82;3.50;;;;;;;;;;4975168;28;20039;-78
2022/06/19 03:09:32;;;;;;;12.57;3.88;;;;;;;;;;4975320;28;20058;-77
2022/06/19 03:11:58;;;;;;;16.95;3.88;;;;;;;;;;4974228;28;20039;-78
2022/06/19 03:14:24;;;;;;;19.63;4.53;;;;;;;;;;4973868;28;20150;-78
2022/06/19 03:16:51;;;;;;;14.38;3.78;;;;;;;;;;4975516;28;20104;-77
2022/06/19 03:19:17;;;;;;;13.75;3.72;;;;;;;;;;4975004;28;20355;-78
2022/06/19 03:21:43;;;;;;;13.65;3.67;;;;;;;;;;4975474;28;20051;-77
2022/06/19 03:24:10;;;;;;;11.82;3.72;;;;;;;;;;4975374;28;20126;-77
2022/06/19 03:26:36;;;;;;;14.45;3.30;;;;;;;;;;4975356;28;20047;-78
2022/06/19 03:29:02;;;;;;;13.85;3.70;;;;;;;;;;4973851;28;20042;-78
2022/06/19 03:31:29;;;;;;;14.07;3.75;;;;;;;;;;4975039;28;20086;-78
2022/06/19 03:33:55;;;;;;;15.15;4.05;;;;;;;;;;4974995;28;20046;-78
2022/06/19 03:36:21;;;;;;;13.60;3.60;;;;;;;;;;4975321;28;20079;-77
2022/06/19 03:38:48;;;;;;;19.08;3.90;;;;;;;;;;4975192;28;20093;-78
2022/06/19 03:41:14;;;;;;;15.68;4.15;;;;;;;;;;4973797;28;20541;-77
2022/06/19 03:43:41;;;;;;;22.38;4.57;;;;;;;;;;4973789;28;20108;-77
2022/06/19 03:46:12;;;;;;;17.95;3.72;;;;;;;;;;4974376;28;20051;-77
2022/06/19 03:48:42;;;;;;;16.83;3.70;;;;;;;;;;4975145;28;20527;-77
2022/06/19 03:51:09;;;;;;;17.67;4.07;;;;;;;;;;4975008;28;20522;-77
2022/06/19 03:53:35;;;;;;;19.40;3.95;;;;;;;;;;4974876;28;20114;-78
2022/06/19 03:56:01;;;;;;;19.70;4.45;;;;;;;;;;4974859;28;20051;-77
2022/06/19 03:58:45;;;;;;;17.40;3.92;;;;;;;;;;4973352;28;20476;-78
2022/06/19 04:01:12;;;;;;;16.10;4.18;;;;;;;;;;4974873;28;20059;-78
2022/06/19 04:03:38;;;;;;;18.33;3.83;;;;;;;;;;4974639;28;20513;-78
2022/06/19 04:06:04;;;;;;;21.02;4.80;;;;;;;;;;4973860;28;20055;-78
2022/06/19 04:08:30;;;;;;;24.08;4.47;;;;;;;;;;4974877;28;20101;-78
2022/06/19 04:10:56;;;;;;;19.45;4.35;;;;;;;;;;4974319;28;20129;-78
2022/06/19 04:13:22;;;;;;;19.45;4.28;;;;;;;;;;4971884;28;20381;-78
2022/06/19 04:15:48;;;;;;;20.33;3.88;;;;;;;;;;4972703;28;20061;-77
2022/06/19 04:18:14;;;;;;;17.70;4.68;;;;;;;;;;4974227;28;20385;-77
2022/06/19 04:20:40;;;;;;;20.38;3.85;;;;;;;;;;4973176;28;20488;-77
2022/06/19 04:23:09;;;;;;;19.45;3.70;;;;;;;;;;4974053;28;20046;-77
2022/06/19 04:25:35;;;;;;;18.58;4.15;;;;;;;;;;4974266;28;20055;-77
2022/06/19 04:28:01;;;;;;;19.33;3.65;;;;;;;;;;4972463;28;20558;-78
2022/06/19 04:30:27;;;;;;;20.27;3.88;;;;;;;;;;4974263;28;20046;-77
2022/06/19 04:32:53;;;;;;;14.85;3.30;;;;;;;;;;4974277;28;20385;-77
2022/06/19 04:35:19;;;;;;;13.80;3.20;;;;;;;;;;4972843;28;20563;-76
2022/06/19 04:37:45;;;;;;;14.45;3.50;;;;;;;;;;4972682;28;20574;-77
2022/06/19 04:40:13;;;;;;;21.13;3.83;;;;;;;;;;4973826;28;20082;-76
2022/06/19 04:42:39;;;;;;;15.27;2.97;;;;;;;;;;4972272;28;20042;-76
2022/06/19 04:45:05;;;;;;;13.82;3.25;;;;;;;;;;4969276;28;20390;-77
2022/06/19 04:47:31;;;;;;;13.73;3.55;;;;;;;;;;4954395;28;20102;-77
2022/06/19 04:49:58;;;;;;;13.38;3.33;;;;;;;;;;4954810;28;20051;-77
2022/06/19 04:52:24;;;;;;;13.63;3.30;;;;;;;;;;4967944;28;20389;-77
2022/06/19 04:54:50;;;;;;;12.82;3.00;;;;;;;;;;4973645;28;20046;-77
2022/06/19 04:57:16;;;;;;;11.48;2.60;;;;;;;;;;4972701;28;20117;-77
2022/06/19 04:59:43;;;;;;;11.68;3.03;;;;;;;;;;4972566;28;20258;-77
2022/06/19 05:02:12;;;;;;;11.95;2.80;;;;;;;;;;4973840;28;20055;-78
2022/06/19 05:04:38;;;;;;;10.38;2.97;;;;;;;;;;4973701;28;20038;-75
2022/06/19 05:07:04;;;;;;;11.02;2.70;;;;;;;;;;4972066;28;20138;-76
2022/06/19 05:09:30;;;;;;;12.68;2.88;;;;;;;;;;4972805;28;20039;-77
2022/06/19 05:11:56;;;;;;;8.60;2.80;;;;;;;;;;4972817;28;20078;-77
2022/06/19 05:14:22;;;;;;;9.07;3.00;;;;;;;;;;4973668;28;20496;-77
2022/06/19 05:16:49;;;;;;;10.07;3.17;;;;;;;;;;4973797;28;20046;-78
2022/06/19 05:19:16;;;;;;;8.35;2.47;;;;;;;;;;4973499;28;20121;-78
2022/06/19 05:21:42;;;;;;;9.23;2.85;;;;;;;;;;4973307;28;20404;-77
2022/06/19 05:24:09;;;;;;;7.75;2.47;;;;;;;;;;4972941;28;20049;-79
2022/06/19 05:26:35;;;;;;;10.88;2.63;;;;;;;;;;4972610;28;20125;-78
2022/06/19 05:29:02;;;;;;;9.48;2.75;;;;;;;;;;4973488;28;20051;-77
2022/06/19 05:31:32;;;;;;;10.70;2.45;;;;;;;;;;4973668;28;20043;-78
2022/06/19 05:33:58;;;;;;;12.85;3.05;;;;;;;;;;4974271;28;20049;-78
2022/06/19 05:36:29;;;;;;;10.07;2.40;;;;;;;;;;4976082;28;20407;-78
2022/06/19 05:38:55;;;;;;;8.07;2.67;;;;;;;;;;4976675;28;20499;-78
2022/06/19 05:41:23;;;;;;;5.53;2.20;;;;;;;;;;4976414;28;20061;-79
2022/06/19 05:43:49;;;;;;;11.55;2.50;;;;;;;;;;4976880;28;20118;-78
2022/06/19 05:46:17;;;;;;;5.10;2.30;;;;;;;;;;4977293;28;20069;-78
2022/06/19 05:48:43;;;;;;;10.25;2.42;;;;;;;;;;4977287;28;20097;-78
2022/06/19 05:51:11;;;;;;;7.78;2.35;;;;;;;;;;4977123;28;20081;-78
2022/06/19 05:53:38;;;;;;;8.75;2.55;;;;;;;;;;4975534;28;20045;-77
2022/06/19 05:56:04;;;;;;;8.27;2.28;;;;;;;;;;4975186;28;20078;-75
2022/06/19 05:58:31;;;;;;;6.75;2.50;;;;;;;;;;4975230;28;20070;-76
2022/06/19 06:00:57;;;;;;;8.73;2.88;;;;;;;;;;4976836;28;20094;-80
2022/06/19 06:03:24;;;;;;;9.57;2.78;;;;;;;;;;4974043;28;20050;-76
2022/06/19 06:05:50;;;;;;;11.57;2.97;;;;;;;;;;4976733;28;20101;-78
2022/06/19 06:08:18;;;;;;;10.10;2.60;;;;;;;;;;4975316;28;20101;-76
2022/06/19 06:10:44;;;;;;;11.30;2.75;;;;;;;;;;4972554;28;20050;-77
2022/06/19 06:13:11;;;;;;;9.27;2.88;;;;;;;;;;4976731;28;20054;-76
2022/06/19 06:15:37;;;;;;;12.00;3.00;;;;;;;;;;4977152;28;20046;-77
2022/06/19 06:18:03;;;;;;;13.07;3.00;;;;;;;;;;4976366;28;20467;-76
2022/06/19 06:20:30;;;;;;;7.85;2.63;;;;;;;;;;4975789;28;20054;-76
2022/06/19 06:22:56;;;;;;;8.48;2.80;;;;;;;;;;4976692;28;20038;-78
2022/06/19 06:25:23;;;;;;;11.13;3.00;;;;;;;;;;4975774;28;20058;-77
2022/06/19 06:27:49;;;;;;;6.60;2.58;;;;;;;;;;4976644;28;20054;-76
2022/06/19 06:30:16;;;;;;;8.20;2.70;;;;;;;;;;4976566;28;20404;-76
2022/06/19 06:32:42;;;;;;;9.65;2.92;;;;;;;;;;4976261;28;20519;-76
2022/06/19 06:35:09;;;;;;;6.70;2.60;;;;;;;;;;4976245;28;20066;-77
2022/06/19 06:37:35;;;;;;;12.15;2.60;;;;;;;;;;4972746;28;20113;-76
2022/06/19 06:40:01;;;;;;;8.85;2.65;;;;;;;;;;4976235;28;20234;-76
2022/06/19 06:42:27;;;;;;;7.25;2.33;;;;;;;;;;4976098;28;20050;-77
2022/06/19 06:44:53;;;;;;;8.20;2.70;;;;;;;;;;4976059;28;20050;-77
2022/06/19 06:47:19;;;;;;;12.00;2.60;;;;;;;;;;4974266;28;20062;-77
2022/06/19 06:49:45;;;;;;;8.13;2.30;;;;;;;;;;4975820;28;20126;-77
2022/06/19 06:52:11;;;;;;;9.63;2.70;;;;;;;;;;4971523;28;20134;-77
2022/06/19 06:54:38;;;;;;;9.32;2.60;;;;;;;;;;4974536;28;20532;-77
2022/06/19 06:57:05;;;;;;;12.88;3.45;;;;;;;;;;4975804;28;20530;-77
2022/06/19 06:59:31;;;;;;;7.68;2.55;;;;;;;;;;4974302;28;20130;-77
2022/06/19 07:02:01;;;;;;;6.68;2.40;;;;;;;;;;4973287;28;20043;-77
2022/06/19 07:04:29;;;;;;;7.85;2.28;;;;;;;;;;4973666;28;20116;-77
2022/06/19 07:06:55;;;;;;;6.22;2.42;;;;;;;;;;4974383;28;20119;-77
2022/06/19 07:09:22;;;;;;;7.57;2.42;;;;;;;;;;4974172;28;20050;-75
2022/06/19 07:11:48;;;;;;;8.77;2.30;;;;;;;;;;4974247;28;20054;-76
2022/06/19 07:14:15;;;;;;;6.68;2.88;;;;;;;;;;4974258;28;20100;-76
2022/06/19 07:16:41;;;;;;;6.13;2.30;;;;;;;;;;4975383;28;20492;-77
2022/06/19 07:19:07;;;;;;;12.85;2.65;;;;;;;;;;4975356;28;20484;-76
2022/06/19 07:21:33;;;;;;;8.63;2.20;;;;;;;;;;4975606;28;20039;-76
2022/06/19 07:24:00;;;;;;;9.27;2.58;;;;;;;;;;4974474;28;20122;-76
2022/06/19 07:26:26;;;;;;;6.30;2.22;;;;;;;;;;4975514;28;20050;-77
2022/06/19 07:28:55;;;;;;;6.70;2.28;;;;;;;;;;4974237;28;20055;-76
2022/06/19 07:31:22;;;;;;;9.25;2.50;;;;;;;;;;4975255;28;20042;-76
2022/06/19 07:33:48;;;;;;;9.95;2.63;;;;;;;;;;4975441;28;20101;-77
2022/06/19 07:36:16;;;;;;;5.97;2.22;;;;;;;;;;4975669;28;20046;-77
2022/06/19 07:38:42;;;;;;;11.90;2.38;;;;;;;;;;4975284;28;20142;-78
2022/06/19 07:41:08;;;;;;;6.95;2.25;;;;;;;;;;4975154;28;20078;-77
2022/06/19 07:43:35;;;;;;;6.15;2.20;;;;;;;;;;4972184;28;20074;-77
2022/06/19 07:46:01;;;;;;;5.90;2.00;;;;;;;;;;4974566;28;20090;-77
2022/06/19 07:51:14;;;;;;;7.55;2.10;;;;;;;;;;4975103;28;20559;-77
2022/06/19 07:53:40;;;;;;;8.43;2.30;;;;;;;;;;4974830;28;20042;-77
2022/06/19 07:56:07;;;;;;;8.32;2.17;;;;;;;;;;4974596;28;20448;-76
2022/06/19 07:58:36;;;;;;;9.05;2.60;;;;;;;;;;4973429;28;20491;-75
2022/06/19 08:01:02;;;;;;;7.15;2.38;;;;;;;;;;4972694;28;20420;-76
2022/06/19 08:03:29;;;;;;;6.35;2.15;;;;;;;;;;4974402;28;20046;-76
2022/06/19 08:05:56;;;;;;;7.57;2.20;;;;;;;;;;4986724;28;20062;-76
2022/06/19 08:08:27;;;;;;;7.10;2.22;;;;;;;;;;4975156;28;20059;-76
2022/06/19 08:10:54;;;;;;;5.97;1.98;;;;;;;;;;4974148;28;20543;-76
2022/06/19 08:13:21;;;;;;;6.28;2.10;;;;;;;;;;4974399;28;20053;-76
2022/06/19 08:15:54;;;;;;;5.78;1.92;;;;;;;;;;4974035;28;20047;-76
2022/06/19 08:18:21;;;;;;;6.13;2.03;;;;;;;;;;4973157;28;20039;-76
2022/06/19 08:20:47;;;;;;;8.10;2.50;;;;;;;;;;4973948;28;20046;-76
2022/06/19 08:23:17;;;;;;;6.43;2.20;;;;;;;;;;4974261;28;20046;-77
2022/06/19 08:25:45;;;;;;;7.05;2.00;;;;;;;;;;4974441;28;20051;-76
2022/06/19 08:28:15;;;;;;;6.38;1.98;;;;;;;;;;4974000;28;20049;-75
2022/06/19 08:30:42;;;;;;;5.25;2.20;;;;;;;;;;4974339;28;20047;-76
2022/06/19 08:33:09;;;;;;;5.03;2.05;;;;;;;;;;4974263;28;20089;-76
2022/06/19 08:35:41;;;;;;;6.93;1.90;;;;;;;;;;4956442;28;20072;-77
2022/06/19 08:38:11;;;;;;;6.88;2.03;;;;;;;;;;4972282;28;20054;-76
2022/06/19 08:40:59;;;;;;;3.75;1.88;;;;;;;;;;4973997;28;20047;-76
2022/06/19 08:43:27;;;;;;;5.75;1.80;;;;;;;;;;4973453;28;20043;-76
2022/06/19 08:46:12;;;;;;;5.00;1.75;;;;;;;;;;4972493;28;20086;-76
2022/06/19 08:48:50;;;;;;;3.47;1.70;;;;;;;;;;4972275;28;20508;-75
2022/06/19 08:51:23;;;;;;;2.67;1.63;;;;;;;;;;4954737;28;20045;-75
2022/06/19 08:54:01;;;;;;;2.63;1.70;;;;;;;;;;4954540;28;20047;-75
2022/06/19 08:56:46;;;;;;;3.35;1.63;;;;;;;;;;4954556;28;20043;-75
2022/06/19 08:59:30;;;;;;;4.75;1.95;;;;;;;;;;4970539;28;20047;-75
2022/06/19 09:02:01;;;;;;;6.05;2.13;;;;;;;;;;4972835;28;20401;-76
2022/06/19 09:07:30;;;;;;;4.07;1.90;;;;;;;;;;4973832;28;20130;-75
2022/06/19 09:10:15;;;;;;;3.78;1.70;;;;;;;;;;4972651;28;20185;-77
2022/06/19 09:12:50;;;;;;;4.53;1.98;;;;;;;;;;4963808;28;20074;-77
2022/06/19 09:15:18;;;;;;;6.63;2.03;;;;;;;;;;4972591;28;20078;-77
2022/06/19 09:17:53;;;;;;;4.53;2.05;;;;;;;;;;4968485;28;20453;-78
2022/06/19 09:20:33;;;;;;;9.27;2.33;;;;;;;;;;4963148;28;20039;-77
2022/06/19 09:23:08;;;;;;;7.22;2.00;;;;;;;;;;4971856;28;20042;-77
2022/06/19 09:25:37;;;;;;;5.37;2.10;;;;;;;;;;4972815;28;20078;-77
2022/06/19 09:28:13;;;;;;;6.65;2.13;;;;;;;;;;4971264;28;20046;-77
2022/06/19 09:31:01;;;;;;;7.80;2.20;;;;;;;;;;4971585;28;20063;-76
2022/06/19 09:33:47;;;;;;;5.80;2.03;;;;;;;;;;4973306;28;20499;-77
2022/06/19 09:36:16;;;;;;;6.03;2.28;;;;;;;;;;4962696;28;20081;-79
2022/06/19 09:38:45;;;;;;;6.68;2.47;;;;;;;;;;4971536;28;20133;-77
2022/06/19 09:41:26;;;;;;;6.22;2.10;;;;;;;;;;4972711;28;20038;-78
2022/06/19 09:43:59;;;;;;;5.13;2.17;;;;;;;;;;4968677;28;20425;-77
2022/06/19 09:46:29;;;;;;;6.25;2.55;;;;;;;;;;4972867;28;20055;-77
2022/06/19 09:49:02;;;;;;;6.60;2.25;;;;;;;;;;4972958;28;20050;-75
2022/06/19 09:51:36;;;;;;;7.03;2.22;;;;;;;;;;4972201;28;20523;-75
2022/06/19 09:54:13;;;;;;;5.57;2.28;;;;;;;;;;4971337;28;20050;-75
2022/06/19 09:56:42;;;;;;;9.27;2.38;;;;;;;;;;4971562;28;20496;-75
2022/06/19 09:59:19;;;;;;;7.20;2.30;;;;;;;;;;4971958;28;20038;-76
2022/06/19 10:01:53;;;;;;;7.72;2.30;;;;;;;;;;4968346;28;20043;-76
2022/06/19 10:04:21;;;;;;;6.57;2.20;;;;;;;;;;4971840;28;20047;-76
2022/06/19 10:06:50;;;;;;;6.38;2.50;;;;;;;;;;4971479;28;20066;-76
2022/06/19 10:09:28;;;;;;;4.43;2.05;;;;;;;;;;4969598;28;20582;-76
2022/06/19 10:11:59;;;;;;;8.38;2.92;;;;;;;;;;4970593;28;20047;-76
2022/06/19 10:14:42;;;;;;;7.45;2.30;;;;;;;;;;4968426;28;20411;-77
2022/06/19 10:17:21;;;;;;;5.22;1.98;;;;;;;;;;4978393;28;20058;-74
2022/06/19 10:19:50;;;;;;;5.10;2.33;;;;;;;;;;4958808;28;20043;-76
2022/06/19 10:22:35;;;;;;;5.28;2.13;;;;;;;;;;4970181;28;20411;-76
2022/06/19 10:25:23;;;;;;;6.63;2.30;;;;;;;;;;4975840;28;20442;-75
2022/06/19 10:28:07;;;;;;;7.57;2.27;;;;;;;;;;4977450;28;20042;-76
2022/06/19 10:30:46;;;;;;;7.70;2.40;;;;;;;;;;4975827;28;20447;-76
2022/06/19 10:33:12;;;;;;;5.70;2.10;;;;;;;;;;4971491;28;20085;-76
2022/06/19 10:35:46;;;;;;;4.43;2.10;;;;;;;;;;4974285;28;20043;-76
2022/06/19 10:38:12;;;;;;;5.88;2.20;;;;;;;;;;4975126;28;20579;-74
2022/06/19 10:40:57;;;;;;;4.03;2.00;;;;;;;;;;4974161;28;20117;-75
2022/06/19 10:43:23;;;;;;;5.25;2.00;;;;;;;;;;4975481;28;20038;-75
2022/06/19 10:45:54;;;;;;;5.95;2.40;;;;;;;;;;4989749;28;20055;-75
2022/06/19 10:48:25;;;;;;;4.55;2.28;;;;;;;;;;4975626;28;20043;-75
2022/06/19 10:51:00;;;;;;;5.97;1.92;;;;;;;;;;4975483;28;20050;-75
2022/06/19 10:53:36;;;;;;;3.95;1.80;;;;;;;;;;4970490;28;20058;-75
2022/06/19 10:56:09;;;;;;;6.63;2.00;;;;;;;;;;4961720;28;20511;-75
2022/06/19 10:58:36;;;;;;;4.13;1.85;;;;;;;;;;4968751;28;20039;-75
2022/06/19 11:01:04;;;;;;;3.95;2.05;;;;;;;;;;4970098;28;20053;-76
2022/06/19 11:06:35;;;;;;;6.10;1.92;;;;;;;;;;4975120;28;20050;-79
2022/06/19 11:09:03;;;;;;;6.75;2.28;;;;;;;;;;4961081;28;20047;-74
2022/06/19 11:11:30;;;;;;;4.53;2.15;;;;;;;;;;4974599;28;20101;-74
2022/06/19 11:13:58;;;;;;;3.92;2.13;;;;;;;;;;4973801;28;20133;-75
2022/06/19 11:16:24;;;;;;;5.53;2.35;;;;;;;;;;4974113;28;20050;-76
2022/06/19 11:18:51;;;;;;;4.72;2.13;;;;;;;;;;4975670;28;20043;-76
2022/06/19 11:21:19;;;;;;;4.72;2.15;;;;;;;;;;4973458;28;20086;-76
2022/06/19 11:23:48;;;;;;;5.95;2.00;;;;;;;;;;4973390;28;20051;-76
2022/06/19 11:26:27;;;;;;;4.32;2.05;;;;;;;;;;4973823;28;20137;-75
2022/06/19 11:28:56;;;;;;;4.32;2.08;;;;;;;;;;4963827;28;20558;-76
2022/06/19 11:31:22;;;;;;;5.63;2.08;;;;;;;;;;4973827;28;20043;-75
2022/06/19 11:33:49;;;;;;;6.93;2.20;;;;;;;;;;4973310;28;20547;-78
2022/06/19 11:36:38;;;;;;;4.95;1.90;;;;;;;;;;4973693;28;20380;-76
2022/06/19 11:39:23;;;;;;;4.22;2.30;;;;;;;;;;4974164;28;20058;-76
2022/06/19 11:41:49;;;;;;;5.57;1.90;;;;;;;;;;4964259;28;20047;-76
2022/06/19 11:44:17;;;;;;;5.75;2.30;;;;;;;;;;4975172;28;20500;-76
2022/06/19 11:46:45;;;;;;;5.05;2.00;;;;;;;;;;4974095;28;20137;-75
2022/06/19 11:49:18;;;;;;;6.38;1.90;;;;;;;;;;4975348;28;20103;-75
2022/06/19 11:51:44;;;;;;;3.95;1.80;;;;;;;;;;4973831;28;20051;-77
2022/06/19 11:54:13;;;;;;;3.85;1.90;;;;;;;;;;4973916;28;20047;-77
2022/06/19 11:56:39;;;;;;;3.63;1.60;;;;;;;;;;4974847;28;20047;-77
2022/06/19 11:59:25;;;;;;;4.60;1.98;;;;;;;;;;4974019;28;20043;-76
2022/06/19 12:01:51;;;;;;;6.45;2.30;;;;;;;;;;4961456;28;20054;-75
2022/06/19 12:04:33;;;;;;;5.18;1.98;;;;;;;;;;4955382;28;20070;-76
2022/06/19 12:07:03;;;;;;;5.45;2.00;;;;;;;;;;4964925;28;20065;-75
2022/06/19 12:09:29;;;;;;;5.40;2.10;;;;;;;;;;4973830;28;20043;-75
2022/06/19 12:12:10;;;;;;;7.95;2.08;;;;;;;;;;4989454;28;20049;-76
2022/06/19 12:14:37;;;;;;;5.82;2.20;;;;;;;;;;4973358;28;20384;-77
2022/06/19 12:17:17;;;;;;;4.65;1.95;;;;;;;;;;4974486;28;20058;-77
2022/06/19 12:19:52;;;;;;;6.25;2.15;;;;;;;;;;4972464;28;20038;-76
2022/06/19 12:22:20;;;;;;;7.38;2.42;;;;;;;;;;4973493;28;20043;-76
2022/06/19 12:25:08;;;;;;;3.60;1.80;;;;;;;;;;4967248;28;20047;-76
2022/06/19 12:27:38;;;;;;;7.32;2.28;;;;;;;;;;4970228;28;20043;-76
2022/06/19 12:30:07;;;;;;;4.40;2.08;;;;;;;;;;4973461;28;20118;-76
2022/06/19 12:32:36;;;;;;;5.80;2.20;;;;;;;;;;4972881;28;20134;-76
2022/06/19 12:35:05;;;;;;;7.32;2.22;;;;;;;;;;4954498;28;20043;-76
2022/06/19 12:37:32;;;;;;;5.18;2.20;;;;;;;;;;4988411;28;20259;-82
2022/06/19 12:39:58;;;;;;;7.65;2.45;;;;;;;;;;4970908;28;20082;-76
2022/06/19 12:42:27;;;;;;;6.38;2.30;;;;;;;;;;4969470;28;20477;-77
2022/06/19 12:44:59;;;;;;;5.35;1.85;;;;;;;;;;4973903;28;20046;-76
2022/06/19 12:47:54;;;;;;;6.60;2.25;;;;;;;;;;4973038;28;20051;-76
2022/06/19 12:50:29;;;;;;;6.95;2.15;;;;;;;;;;4933092;29;20058;-76
2022/06/19 12:53:03;;;;;;;7.78;2.20;;;;;;;;;;4904474;29;20462;-77
2022/06/19 12:55:42;;;;;;;10.18;2.40;;;;;;;;;;4929810;29;20048;-76
2022/06/19 12:58:24;;;;;;;7.78;2.92;;;;;;;;;;4898476;29;20071;-76
2022/06/19 13:00:50;;;;;;;5.88;2.20;;;;;;;;;;4923896;29;20059;-76
2022/06/19 13:03:36;;;;;;;7.63;2.65;;;;;;;;;;4933979;29;20126;-76
2022/06/19 13:06:02;;;;;;;;;;;;;;;;;;4931059;29;20044;-76
2022/06/19 13:08:28;;;;;;;6.75;2.08;;;;;;;;;;4931273;29;20252;-76
2022/06/19 13:11:01;;;;;;;7.00;2.40;;;;;;;;;;4927656;29;20110;-77
2022/06/19 13:13:30;;;;;;;6.97;2.40;;;;;;;;;;4928595;29;20056;-75
2022/06/19 13:16:00;;;;;;;7.28;2.83;;;;;;;;;;4932622;29;20059;-76
2022/06/19 13:18:35;;;;;;;5.50;2.33;;;;;;;;;;4930714;29;20048;-76
2022/06/19 13:21:07;;;;;;;7.87;2.60;;;;;;;;;;4933103;29;20052;-75
2022/06/19 13:23:39;;;;;;;7.07;2.47;;;;;;;;;;4931409;29;20096;-76
2022/06/19 13:27:10;;;;;;;8.00;2.60;;;;;;;;;;4936913;28;20062;-77
2022/06/19 13:29:09;;;;;;;7.93;2.42;;;;;;;;;;4969067;28;20489;-77
2022/06/19 13:31:43;;;;;;;7.63;2.67;;;;;;;;;;4969393;28;20034;-76
2022/06/19 13:34:09;;;;;;;7.95;2.40;;;;;;;;;;4968465;28;20133;-77
2022/06/19 13:36:42;;;;;;;6.95;2.70;;;;;;;;;;4968417;28;20150;-77
2022/06/19 13:39:14;;;;;;;6.85;2.60;;;;;;;;;;4968781;28;20141;-77
2022/06/19 13:41:46;;;;;;;9.85;3.00;;;;;;;;;;4969250;28;20035;-77
2022/06/19 13:44:23;;;;;;;8.52;2.78;;;;;;;;;;4973307;28;20456;-77
2022/06/19 13:46:52;;;;;;;10.90;2.90;;;;;;;;;;4967906;28;20055;-77
2022/06/19 13:49:23;;;;;;;7.95;2.83;;;;;;;;;;4968936;28;20043;-77
2022/06/19 13:52:08;;;;;;;6.63;2.53;;;;;;;;;;4973039;28;20094;-76
2022/06/19 13:54:43;;;;;;;8.60;3.10;;;;;;;;;;4967976;28;20415;-77
2022/06/19 13:57:29;;;;;;;8.63;2.90;;;;;;;;;;4975698;28;20043;-76
2022/06/19 14:00:12;;;;;;;12.03;3.57;;;;;;;;;;4975868;28;20501;-75
2022/06/19 14:03:02;;;;;;;12.75;3.33;;;;;;;;;;4976983;28;20438;-75
2022/06/19 14:05:31;;;;;;;8.93;3.08;;;;;;;;;;4965705;28;20588;-75
2022/06/19 14:08:15;;;;;;;11.55;3.30;;;;;;;;;;4976202;28;20047;-76
2022/06/19 14:10:44;;;;;;;11.32;2.92;;;;;;;;;;4975894;28;20043;-76
2022/06/19 14:13:20;;;;;;;8.77;2.58;;;;;;;;;;4976620;28;20046;-76
2022/06/19 14:15:59;;;;;;;7.65;2.72;;;;;;;;;;4975696;28;20093;-76
2022/06/19 14:18:34;;;;;;;7.80;2.67;;;;;;;;;;4959130;28;20042;-76
2022/06/19 14:21:19;;;;;;;8.88;2.95;;;;;;;;;;4971163;28;20473;-75
2022/06/19 14:24:07;;;;;;;12.20;3.08;;;;;;;;;;4957228;28;20051;-76
2022/06/19 14:26:39;;;;;;;11.00;2.95;;;;;;;;;;4976376;28;20121;-75
2022/06/19 14:29:05;;;;;;;10.45;3.17;;;;;;;;;;4976686;28;20089;-75
2022/06/19 14:31:31;;;;;;;11.57;2.92;;;;;;;;;;4976356;28;20122;-76
2022/06/19 14:33:57;;;;;;;8.02;2.65;;;;;;;;;;4976615;28;20043;-75
2022/06/19 14:36:25;;;;;;;10.05;3.10;;;;;;;;;;4975499;28;20415;-75
2022/06/19 14:38:52;;;;;;;9.00;2.83;;;;;;;;;;4975574;28;20380;-75
2022/06/19 14:41:19;;;;;;;8.30;2.80;;;;;;;;;;4976468;28;20043;-75
2022/06/19 14:43:52;;;;;;;9.38;2.58;;;;;;;;;;4975138;28;20046;-75
2022/06/19 14:46:23;;;;;;;6.80;2.75;;;;;;;;;;4975884;28;20480;-75
2022/06/19 14:49:16;;;;;;;9.35;3.03;;;;;;;;;;4975422;28;20085;-76
2022/06/19 14:52:05;;;;;;;10.18;3.15;;;;;;;;;;4916496;29;20053;-76
2022/06/19 14:54:57;;;;;;;8.00;2.72;;;;;;;;;;4900305;29;20048;-76
2022/06/19 14:57:41;;;;;;;9.07;3.03;;;;;;;;;;4924745;29;20052;-75
2022/06/19 15:00:13;;;;;;;8.65;2.47;;;;;;;;;;4916382;29;20048;-76
2022/06/19 15:02:47;;;;;;;11.75;2.50;;;;;;;;;;4916283;29;20063;-75
2022/06/19 15:05:25;;;;;;;10.95;2.50;;;;;;;;;;4915893;29;20044;-75
2022/06/19 15:07:55;;;;;;;7.07;2.70;;;;;;;;;;4916116;29;20097;-76